createdAt,value
2022-08-16T00:02:52.535Z,11.38
2022-08-16T00:05:22.206Z,15.70
2022-08-16T00:07:55.240Z,16.80
2022-08-16T00:12:53.302Z,14.30
2022-08-16T00:15:25.449Z,13.70
2022-08-16T00:18:15.474Z,13.27
2022-08-16T00:20:45.458Z,16.75
2022-08-16T00:23:14.259Z,10.50
2022-08-16T00:26:35.345Z,15.35
2022-08-16T00:28:31.580Z,12.32
2022-08-16T00:31:01.073Z,13.45
2022-08-16T00:33:29.128Z,14.48
2022-08-16T00:36:01.617Z,14.05
2022-08-16T00:38:40.866Z,16.00
2022-08-16T00:41:11.803Z,13.35
2022-08-16T00:43:43.274Z,11.98
2022-08-16T00:46:34.299Z,12.95
2022-08-16T00:49:19.557Z,15.23
2022-08-16T00:51:53.607Z,14.85
2022-08-16T00:54:26.692Z,12.73
2022-08-16T00:56:59.861Z,14.05
2022-08-16T00:59:30.056Z,14.70
2022-08-16T01:02:30.645Z,14.25
2022-08-16T01:05:09.058Z,14.07
2022-08-16T01:07:50.486Z,15.13
2022-08-16T01:10:32.123Z,13.55
2022-08-16T01:13:07.971Z,13.02
2022-08-16T01:15:43.879Z,11.65
2022-08-16T01:18:40.537Z,15.30
2022-08-16T01:21:25.178Z,18.77
2022-08-16T01:24:53.418Z,16.90
2022-08-16T01:27:30.976Z,18.90
2022-08-16T01:30:20.095Z,15.57
2022-08-16T01:33:01.570Z,16.67
2022-08-16T01:35:36.506Z,15.57
2022-08-16T01:38:28.271Z,14.25
2022-08-16T01:41:07.894Z,15.75
2022-08-16T01:43:38.948Z,12.55
2022-08-16T01:46:48.090Z,16.58
2022-08-16T01:49:42.835Z,13.07
2022-08-16T01:52:29.873Z,14.40
2022-08-16T01:54:59.352Z,14.05
2022-08-16T01:57:28.370Z,12.65
2022-08-16T02:00:00.604Z,14.70
2022-08-16T02:02:29.096Z,14.05
2022-08-16T02:04:58.106Z,14.68
2022-08-16T02:07:25.770Z,14.15
2022-08-16T02:09:58.185Z,16.17
2022-08-16T02:12:50.596Z,15.75
2022-08-16T02:15:25.440Z,15.20
2022-08-16T02:20:26.076Z,17.75
2022-08-16T02:23:01.644Z,13.95
2022-08-16T02:25:52.614Z,14.15
2022-08-16T02:28:23.640Z,14.52
2022-08-16T02:30:52.887Z,15.95
2022-08-16T02:33:24.921Z,19.90
2022-08-16T02:36:14.166Z,15.40
2022-08-16T02:38:42.294Z,15.77
2022-08-16T02:41:12.101Z,16.92
2022-08-16T02:43:40.604Z,17.95
2022-08-16T02:46:09.698Z,14.38
2022-08-16T02:48:39.069Z,17.75
2022-08-16T02:51:11.444Z,17.00
2022-08-16T02:53:45.784Z,15.27
2022-08-16T02:56:16.101Z,13.00
2022-08-16T02:58:45.764Z,13.60
2022-08-16T03:01:25.171Z,17.90
2022-08-16T03:04:24.748Z,17.48
2022-08-16T03:06:56.473Z,14.18
2022-08-16T03:09:25.563Z,13.88
2022-08-16T03:11:57.053Z,14.80
2022-08-16T03:14:25.997Z,13.30
2022-08-16T03:16:59.320Z,14.27
2022-08-16T03:19:47.933Z,16.63
2022-08-16T03:22:19.442Z,14.55
2022-08-16T03:25:01.998Z,15.18
2022-08-16T03:27:32.303Z,15.70
2022-08-16T03:30:15.974Z,19.33
2022-08-16T03:32:51.373Z,18.00
2022-08-16T03:35:23.845Z,19.30
2022-08-16T03:38:03.864Z,17.73
2022-08-16T03:40:37.161Z,19.80
2022-08-16T03:43:20.220Z,21.25
2022-08-16T03:45:53.767Z,15.02
2022-08-16T03:48:36.853Z,18.40
2022-08-16T03:51:12.348Z,17.00
2022-08-16T03:53:41.941Z,20.90
2022-08-16T03:56:20.881Z,14.43
2022-08-16T03:58:50.930Z,17.30
2022-08-16T04:01:22.226Z,17.30
2022-08-16T04:03:50.768Z,20.15
2022-08-16T04:06:18.424Z,22.17
2022-08-16T04:08:46.192Z,17.35
2022-08-16T04:11:16.435Z,16.60
2022-08-16T04:14:00.266Z,19.95
2022-08-16T04:16:33.814Z,19.40
2022-08-16T04:19:04.452Z,20.58
2022-08-16T04:21:35.130Z,17.15
2022-08-16T04:24:03.609Z,20.33
2022-08-16T04:26:35.972Z,17.60
2022-08-16T04:29:15.308Z,15.95
2022-08-16T04:31:56.166Z,22.58
2022-08-16T04:34:27.871Z,19.05
2022-08-16T04:36:56.661Z,18.88
2022-08-16T04:39:46.219Z,17.13
2022-08-16T04:42:18.917Z,16.27
2022-08-16T04:44:56.075Z,20.88
2022-08-16T04:47:32.912Z,16.92
2022-08-16T04:50:06.650Z,16.02
2022-08-16T04:52:38.023Z,17.30
2022-08-16T04:55:12.260Z,18.58
2022-08-16T04:57:41.459Z,16.35
2022-08-16T05:00:32.349Z,20.25
2022-08-16T05:03:07.264Z,15.48
2022-08-16T05:05:45.228Z,19.50
2022-08-16T05:08:28.250Z,15.70
2022-08-16T05:11:00.563Z,20.55
2022-08-16T05:13:40.572Z,19.40
2022-08-16T05:16:24.611Z,18.25
2022-08-16T05:18:56.901Z,16.40
2022-08-16T05:21:28.387Z,17.48
2022-08-16T05:24:07.700Z,15.77
2022-08-16T05:26:43.246Z,16.13
2022-08-16T05:29:17.678Z,16.58
2022-08-16T05:31:53.046Z,18.65
2022-08-16T05:34:22.356Z,21.23
2022-08-16T05:36:51.023Z,21.40
2022-08-16T05:39:20.529Z,16.52
2022-08-16T05:41:49.001Z,29.20
2022-08-16T05:44:22.997Z,21.00
2022-08-16T05:46:55.053Z,22.00
2022-08-16T05:49:38.456Z,27.00
2022-08-16T05:52:13.827Z,23.20
2022-08-16T05:54:58.488Z,24.92
2022-08-16T05:57:34.634Z,22.37
2022-08-16T06:00:09.415Z,21.60
2022-08-16T06:02:38.042Z,22.88
2022-08-16T06:05:06.385Z,21.50
2022-08-16T06:07:39.180Z,21.08
2022-08-16T06:10:08.080Z,21.65
2022-08-16T06:12:37.494Z,21.15
2022-08-16T06:15:10.547Z,22.50
2022-08-16T06:17:42.253Z,19.13
2022-08-16T06:20:24.351Z,23.88
2022-08-16T06:23:11.619Z,19.85
2022-08-16T06:25:44.520Z,18.92
2022-08-16T06:28:34.791Z,18.05
2022-08-16T06:31:06.747Z,16.33
2022-08-16T06:33:41.339Z,23.17
2022-08-16T06:36:14.331Z,15.52
2022-08-16T06:38:55.994Z,18.75
2022-08-16T06:41:27.459Z,18.83
2022-08-16T06:43:56.364Z,15.80
2022-08-16T06:46:32.027Z,20.17
2022-08-16T06:49:01.914Z,16.23
2022-08-16T06:51:46.672Z,16.13
2022-08-16T06:54:17.042Z,16.70
2022-08-16T06:56:44.843Z,20.23
2022-08-16T06:59:13.491Z,15.65
2022-08-16T07:01:45.165Z,14.25
2022-08-16T07:04:31.972Z,16.10
2022-08-16T07:07:02.131Z,14.82
2022-08-16T07:09:30.843Z,13.95
2022-08-16T07:12:03.566Z,16.80
2022-08-16T07:14:32.648Z,16.08
2022-08-16T07:17:00.771Z,17.65
2022-08-16T07:20:01.640Z,14.35
2022-08-16T07:22:37.770Z,14.65
2022-08-16T07:25:12.089Z,14.93
2022-08-16T07:27:40.665Z,16.17
2022-08-16T07:30:38.504Z,15.48
2022-08-16T07:33:00.772Z,15.70
2022-08-16T07:35:28.437Z,15.55
2022-08-16T07:37:56.913Z,14.45
2022-08-16T07:40:56.452Z,13.13
2022-08-16T07:43:13.183Z,14.10
2022-08-16T07:45:42.884Z,13.48
2022-08-16T07:48:12.407Z,15.95
2022-08-16T07:50:56.310Z,16.80
2022-08-16T07:53:31.403Z,14.68
2022-08-16T07:56:01.441Z,13.85
2022-08-16T07:58:36.265Z,14.75
2022-08-16T08:01:10.410Z,12.80
2022-08-16T08:03:48.476Z,11.57
2022-08-16T08:06:24.956Z,15.35
2022-08-16T08:08:57.159Z,12.00
2022-08-16T08:11:25.329Z,13.43
2022-08-16T08:14:03.322Z,13.50
2022-08-16T08:16:33.137Z,15.38
2022-08-16T08:19:02.850Z,14.48
2022-08-16T08:21:59.191Z,14.52
2022-08-16T08:24:22.939Z,13.32
2022-08-16T08:27:02.468Z,12.77
2022-08-16T08:29:37.807Z,15.40
2022-08-16T08:32:58.719Z,11.48
2022-08-16T08:35:03.052Z,13.32
2022-08-16T08:37:53.790Z,13.77
2022-08-16T08:40:27.212Z,13.82
2022-08-16T08:43:11.792Z,12.00
2022-08-16T08:45:52.755Z,11.48
2022-08-16T08:48:34.218Z,12.45
2022-08-16T08:51:09.409Z,13.50
2022-08-16T08:53:39.690Z,11.55
2022-08-16T08:56:23.641Z,13.32
2022-08-16T08:58:59.075Z,13.75
2022-08-16T09:01:36.667Z,13.20
2022-08-16T09:04:14.590Z,11.80
2022-08-16T09:06:46.380Z,11.52
2022-08-16T09:09:16.758Z,11.73
2022-08-16T09:11:50.937Z,10.65
2022-08-16T09:14:24.777Z,13.27
2022-08-16T09:17:03.135Z,11.65
2022-08-16T09:19:41.308Z,11.88
2022-08-16T09:22:20.739Z,12.05
2022-08-16T09:24:53.340Z,11.52
2022-08-16T09:27:23.514Z,10.60
2022-08-16T09:30:00.426Z,11.90
2022-08-16T09:32:31.289Z,14.00
2022-08-16T09:35:01.540Z,15.65
2022-08-16T09:37:30.554Z,12.32
2022-08-16T09:40:31.905Z,11.35
2022-08-16T09:42:59.102Z,11.43
2022-08-16T09:45:28.818Z,14.80
2022-08-16T09:47:58.394Z,13.32
2022-08-16T09:50:37.037Z,11.85
2022-08-16T09:53:15.099Z,13.45
2022-08-16T09:55:53.571Z,12.25
2022-08-16T09:58:41.247Z,12.18
2022-08-16T10:01:14.299Z,11.25
2022-08-16T10:04:02.707Z,16.30
2022-08-16T10:06:33.739Z,12.55
2022-08-16T10:09:06.735Z,13.52
2022-08-16T10:11:55.738Z,13.27
2022-08-16T10:14:24.858Z,11.38
2022-08-16T10:17:03.667Z,15.15
2022-08-16T10:19:32.286Z,12.50
2022-08-16T10:22:04.870Z,13.57
2022-08-16T10:24:33.640Z,10.40
2022-08-16T10:27:21.905Z,13.20
2022-08-16T10:30:00.474Z,12.07
2022-08-16T10:32:30.587Z,13.02
2022-08-16T10:35:00.464Z,12.80
2022-08-16T10:37:32.582Z,13.77
2022-08-16T10:40:28.510Z,12.52
2022-08-16T10:42:55.226Z,12.05
2022-08-16T10:45:23.079Z,11.30
2022-08-16T10:48:02.849Z,12.57
2022-08-16T10:50:32.626Z,15.68
2022-08-16T10:53:00.640Z,14.35
2022-08-16T10:55:40.937Z,13.30
2022-08-16T10:58:16.870Z,11.98
2022-08-16T11:00:46.570Z,12.35
2022-08-16T11:06:09.583Z,15.18
2022-08-16T11:08:44.942Z,18.75
2022-08-16T11:11:19.393Z,11.63
2022-08-16T11:19:24.345Z,11.80
2022-08-16T11:24:44.563Z,15.88
2022-08-16T11:27:20.894Z,15.57
2022-08-16T11:29:56.133Z,14.50
2022-08-16T11:32:31.025Z,15.60
2022-08-16T11:35:10.367Z,15.82
2022-08-16T11:38:46.857Z,13.48
2022-08-16T11:40:56.677Z,10.25
2022-08-16T11:43:29.513Z,13.98
2022-08-16T11:46:07.781Z,11.82
2022-08-16T11:48:48.385Z,12.07
2022-08-16T11:51:15.773Z,10.90
2022-08-16T11:53:43.163Z,16.42
2022-08-16T11:56:10.937Z,13.13
2022-08-16T11:58:42.346Z,14.25
2022-08-16T12:01:19.858Z,11.13
2022-08-16T12:03:57.224Z,11.57
2022-08-16T12:06:30.680Z,11.57
2022-08-16T12:09:02.272Z,9.90
2022-08-16T12:11:32.021Z,10.13
2022-08-16T12:14:04.618Z,11.85
2022-08-16T12:16:34.787Z,11.68
2022-08-16T12:19:06.284Z,18.88
2022-08-16T12:21:58.907Z,12.80
2022-08-16T12:24:27.926Z,10.63
2022-08-16T12:26:57.578Z,10.70
2022-08-16T12:29:29.731Z,10.02
2022-08-16T12:32:01.013Z,11.38
2022-08-16T12:34:47.910Z,15.02
2022-08-16T12:37:18.685Z,12.65
2022-08-16T12:39:50.567Z,17.00
2022-08-16T12:42:22.425Z,14.45
2022-08-16T12:45:04.484Z,15.27
2022-08-16T12:47:50.689Z,13.95
2022-08-16T12:50:19.960Z,18.85
2022-08-16T12:52:52.615Z,16.58
2022-08-16T12:55:23.744Z,22.38
2022-08-16T12:57:58.710Z,18.33
2022-08-16T13:00:33.126Z,17.90
2022-08-16T13:03:02.882Z,17.30
2022-08-16T13:08:04.256Z,12.47
2022-08-16T13:10:38.125Z,13.57
2022-08-16T13:13:09.157Z,15.82
2022-08-16T13:15:51.591Z,15.98
2022-08-16T13:18:34.032Z,12.77
2022-08-16T13:21:06.169Z,20.67
2022-08-16T13:23:35.680Z,14.65
2022-08-16T13:26:05.969Z,13.25
2022-08-16T13:28:36.012Z,16.08
2022-08-16T13:31:05.517Z,14.38
2022-08-16T13:33:37.120Z,14.13
2022-08-16T13:36:21.389Z,12.20
2022-08-16T13:39:00.979Z,11.30
2022-08-16T13:41:30.388Z,13.30
2022-08-16T13:44:00.462Z,15.00
2022-08-16T13:46:30.171Z,13.85
2022-08-16T13:48:59.318Z,13.55
2022-08-16T13:51:30.789Z,14.45
2022-08-16T13:54:04.319Z,18.02
2022-08-16T13:56:37.692Z,15.02
2022-08-16T13:59:19.211Z,11.23
2022-08-16T14:01:55.284Z,14.43
2022-08-16T14:04:28.939Z,13.10
2022-08-16T14:06:58.225Z,17.33
2022-08-16T14:09:28.307Z,14.43
2022-08-16T14:12:00.792Z,15.13
2022-08-16T14:14:30.139Z,15.02
2022-08-16T14:17:00.073Z,13.25
2022-08-16T14:19:29.878Z,15.13
2022-08-16T14:22:14.811Z,17.85
2022-08-16T14:24:46.928Z,13.35
2022-08-16T14:27:17.943Z,12.77
2022-08-16T14:29:49.159Z,12.45
2022-08-16T14:32:33.320Z,12.55
2022-08-16T14:35:07.746Z,19.23
2022-08-16T14:37:37.028Z,14.73
2022-08-16T14:40:07.798Z,13.52
2022-08-16T14:42:36.618Z,14.27
2022-08-16T14:45:07.543Z,15.40
2022-08-16T14:47:37.337Z,20.45
2022-08-16T14:50:14.794Z,12.02
2022-08-16T14:52:56.206Z,15.45
2022-08-16T14:55:27.345Z,14.38
2022-08-16T14:57:55.859Z,13.15
2022-08-16T15:00:33.188Z,12.10
2022-08-16T15:03:06.839Z,16.65
2022-08-16T15:05:39.912Z,17.38
2022-08-16T15:08:08.366Z,13.35
2022-08-16T15:10:45.756Z,17.05
2022-08-16T15:13:14.073Z,11.82
2022-08-16T15:15:44.106Z,17.20
2022-08-16T15:18:23.489Z,14.88
2022-08-16T15:20:55.323Z,21.50
2022-08-16T15:23:25.065Z,13.35
2022-08-16T15:26:03.383Z,18.42
2022-08-16T15:28:33.421Z,13.13
2022-08-16T15:31:03.247Z,15.15
2022-08-16T15:33:38.971Z,11.60
2022-08-16T15:36:13.866Z,16.70
2022-08-16T15:38:56.323Z,15.80
2022-08-16T15:41:42.599Z,11.95
2022-08-16T15:44:21.172Z,12.77
2022-08-16T15:46:55.207Z,10.00
2022-08-16T15:49:38.077Z,11.80
2022-08-16T15:52:29.165Z,11.02
2022-08-16T15:55:00.424Z,10.98
2022-08-16T15:57:36.888Z,13.50
2022-08-16T16:00:15.344Z,10.95
2022-08-16T16:02:44.398Z,11.18
2022-08-16T16:05:11.845Z,11.82
2022-08-16T16:07:55.623Z,14.32
2022-08-16T16:10:29.833Z,13.07
2022-08-16T16:13:01.658Z,13.38
2022-08-16T16:15:33.677Z,10.23
2022-08-16T16:18:09.376Z,13.70
2022-08-16T16:20:46.257Z,15.18
2022-08-16T16:23:16.380Z,11.27
2022-08-16T16:25:45.193Z,11.05
2022-08-16T16:29:06.402Z,11.77
2022-08-16T16:31:07.866Z,11.32
2022-08-16T16:33:39.968Z,12.50
2022-08-16T16:36:11.156Z,10.75
2022-08-16T16:38:42.653Z,11.40
2022-08-16T16:41:11.548Z,12.30
2022-08-16T16:43:41.384Z,12.30
2022-08-16T16:46:42.204Z,12.13
2022-08-16T16:49:04.661Z,13.48
2022-08-16T16:51:40.922Z,11.30
2022-08-16T16:54:12.867Z,12.30
2022-08-16T16:56:49.658Z,13.45
2022-08-16T16:59:19.876Z,10.25
2022-08-16T17:02:00.377Z,11.73
2022-08-16T17:04:38.044Z,15.57
2022-08-16T17:07:10.856Z,14.02
2022-08-16T17:09:41.022Z,14.82
2022-08-16T17:12:20.098Z,14.38
2022-08-16T17:14:55.940Z,11.05
2022-08-16T17:17:24.517Z,13.00
2022-08-16T17:19:52.142Z,11.98
2022-08-16T17:22:22.294Z,23.33
2022-08-16T17:24:52.548Z,11.20
2022-08-16T17:27:32.609Z,21.30
2022-08-16T17:30:15.160Z,11.65
2022-08-16T17:32:54.614Z,15.55
2022-08-16T17:35:33.648Z,13.55
2022-08-16T17:38:09.633Z,9.60
2022-08-16T17:40:47.602Z,13.32
2022-08-16T17:43:29.456Z,10.63
2022-08-16T17:45:57.878Z,12.63
2022-08-16T17:48:26.089Z,13.32
2022-08-16T17:50:54.696Z,14.27
2022-08-16T17:53:23.673Z,13.43
2022-08-16T17:55:52.064Z,12.75
2022-08-16T17:58:22.449Z,13.60
2022-08-16T18:00:57.786Z,12.77
2022-08-16T18:04:08.790Z,16.65
2022-08-16T18:06:24.861Z,13.13
2022-08-16T18:09:00.293Z,11.43
2022-08-16T18:11:30.110Z,16.48
2022-08-16T18:14:00.515Z,13.10
2022-08-16T18:16:27.930Z,17.92
2022-08-16T18:18:57.863Z,14.32
2022-08-16T18:21:44.971Z,13.38
2022-08-16T18:24:14.931Z,14.07
2022-08-16T18:26:42.310Z,14.95
2022-08-16T18:29:09.798Z,14.90
2022-08-16T18:31:40.158Z,13.02
2022-08-16T18:34:07.680Z,14.18
2022-08-16T18:36:35.944Z,15.27
2022-08-16T18:39:04.558Z,22.23
2022-08-16T18:41:36.784Z,25.80
2022-08-16T18:44:26.421Z,40.38
2022-08-16T18:46:55.769Z,38.78
2022-08-16T18:49:23.327Z,43.63
2022-08-16T18:51:50.987Z,33.78
2022-08-16T18:54:19.900Z,36.72
2022-08-16T18:56:56.321Z,30.67
2022-08-16T18:59:31.609Z,28.20
2022-08-16T19:02:05.020Z,31.23
2022-08-16T19:04:56.876Z,31.15
2022-08-16T19:07:29.609Z,22.50
2022-08-16T19:10:04.481Z,24.70
2022-08-16T19:12:38.417Z,18.17
2022-08-16T19:15:20.484Z,24.15
2022-08-16T19:17:48.919Z,20.48
2022-08-16T19:20:24.185Z,17.80
2022-08-16T19:23:05.143Z,18.70
2022-08-16T19:25:49.092Z,13.90
2022-08-16T19:28:49.687Z,18.42
2022-08-16T19:31:20.925Z,15.20
2022-08-16T19:33:53.991Z,23.17
2022-08-16T19:36:35.485Z,24.27
2022-08-16T19:39:10.779Z,20.30
2022-08-16T19:41:41.565Z,15.82
2022-08-16T19:44:09.610Z,16.30
2022-08-16T19:46:37.910Z,20.27
2022-08-16T19:49:06.254Z,15.10
2022-08-16T19:51:33.766Z,17.13
2022-08-16T19:54:03.093Z,18.35
2022-08-16T19:56:30.930Z,14.77
2022-08-16T20:01:46.831Z,14.57
2022-08-16T20:04:17.033Z,20.13
2022-08-16T20:06:45.158Z,17.33
2022-08-16T20:09:15.086Z,14.98
2022-08-16T20:11:49.950Z,15.15
2022-08-16T20:14:24.586Z,17.40
2022-08-16T20:17:04.474Z,19.25
2022-08-16T20:19:36.148Z,13.68
2022-08-16T20:22:52.977Z,17.13
2022-08-16T20:25:31.104Z,18.98
2022-08-16T20:28:01.046Z,14.90
2022-08-16T20:30:29.260Z,16.05
2022-08-16T20:32:59.720Z,20.42
2022-08-16T20:35:28.921Z,18.13
2022-08-16T20:37:56.800Z,18.38
2022-08-16T20:40:29.597Z,19.80
2022-08-16T20:43:08.090Z,20.60
2022-08-16T20:45:36.942Z,16.17
2022-08-16T20:48:06.018Z,21.65
2022-08-16T20:50:34.064Z,17.67
2022-08-16T20:53:02.081Z,19.00
2022-08-16T20:55:30.870Z,24.20
2022-08-16T20:57:58.877Z,25.00
2022-08-16T21:00:26.604Z,20.95
2022-08-16T21:02:54.543Z,21.15
2022-08-16T21:05:25.748Z,18.33
2022-08-16T21:07:58.669Z,18.17
2022-08-16T21:10:26.991Z,21.60
2022-08-16T21:12:58.188Z,17.83
2022-08-16T21:15:27.931Z,17.20
2022-08-16T21:17:55.737Z,16.13
2022-08-16T21:20:26.039Z,20.85
2022-08-16T21:22:56.279Z,18.90
2022-08-16T21:25:26.220Z,17.65
2022-08-16T21:28:40.600Z,18.48
2022-08-16T21:30:42.964Z,16.00
2022-08-16T21:33:16.188Z,17.17
2022-08-16T21:35:46.117Z,16.08
2022-08-16T21:38:29.252Z,16.75
2022-08-16T21:41:03.069Z,13.63
2022-08-16T21:43:33.295Z,14.23
2022-08-16T21:46:07.044Z,20.25
2022-08-16T21:48:36.344Z,17.55
2022-08-16T21:51:10.992Z,16.38
2022-08-16T21:53:39.285Z,17.42
2022-08-16T21:56:06.991Z,21.40
2022-08-16T21:58:37.786Z,19.67
2022-08-16T22:01:06.605Z,17.77
2022-08-16T22:03:35.335Z,15.95
2022-08-16T22:06:13.154Z,17.58
2022-08-16T22:08:49.169Z,17.67
2022-08-16T22:11:21.270Z,16.70
2022-08-16T22:13:51.471Z,17.50
2022-08-16T22:16:28.761Z,18.52
2022-08-16T22:18:56.193Z,18.10
2022-08-16T22:21:24.053Z,16.55
2022-08-16T22:23:57.291Z,16.33
2022-08-16T22:26:36.724Z,16.98
2022-08-16T22:29:09.229Z,16.10
2022-08-16T22:31:38.722Z,15.45
2022-08-16T22:34:06.578Z,16.42
2022-08-16T22:36:34.925Z,17.23
2022-08-16T22:39:05.795Z,19.20
2022-08-16T22:41:35.736Z,19.42
2022-08-16T22:44:05.768Z,20.05
2022-08-16T22:46:34.888Z,14.95
2022-08-16T22:49:04.121Z,21.17
2022-08-16T22:51:31.765Z,18.83
2022-08-16T22:53:59.349Z,16.98
2022-08-16T22:56:27.521Z,17.08
2022-08-16T22:58:55.665Z,17.45
2022-08-16T23:01:25.316Z,19.30
2022-08-16T23:03:57.217Z,15.77
2022-08-16T23:06:25.059Z,17.65
2022-08-16T23:08:52.486Z,18.15
2022-08-16T23:11:22.983Z,17.60
2022-08-16T23:13:56.121Z,18.52
2022-08-16T23:16:33.173Z,17.48
2022-08-16T23:19:04.778Z,18.20
2022-08-16T23:21:33.293Z,15.65
2022-08-16T23:24:01.554Z,18.50
2022-08-16T23:26:46.829Z,19.17
2022-08-16T23:29:25.321Z,17.85
2022-08-16T23:31:56.954Z,18.92
2022-08-16T23:34:27.289Z,17.70
2022-08-16T23:36:55.562Z,21.88
2022-08-16T23:39:25.073Z,19.65
2022-08-16T23:41:52.622Z,21.77
2022-08-16T23:44:56.779Z,25.30
2022-08-16T23:47:07.780Z,21.35
2022-08-16T23:49:57.595Z,22.05
2022-08-16T23:52:40.659Z,27.85
2022-08-16T23:55:11.681Z,16.60
2022-08-16T23:57:39.030Z,20.70
